sensor_id;sensor_type;location;lat;lon;timestamp;P1;durP1;ratioP1;P2;durP2;ratioP2
78563;SDS011;67856;47.754;19.088;2023-07-16T00:00:42;2.42;;;2.03;;
78563;SDS011;67856;47.754;19.088;2023-07-16T00:03:46;2.20;;;2.00;;
78563;SDS011;67856;47.754;19.088;2023-07-16T00:06:49;2.42;;;2.20;;
78563;SDS011;67856;47.754;19.088;2023-07-16T00:09:52;2.40;;;2.20;;
78563;SDS011;67856;47.754;19.088;2023-07-16T00:12:55;2.20;;;2.00;;
78563;SDS011;67856;47.754;19.088;2023-07-16T00:15:59;2.38;;;2.17;;
78563;SDS011;67856;47.754;19.088;2023-07-16T00:19:01;2.58;;;2.35;;
78563;SDS011;67856;47.754;19.088;2023-07-16T00:22:04;2.50;;;2.30;;
78563;SDS011;67856;47.754;19.088;2023-07-16T00:25:07;2.40;;;2.03;;
78563;SDS011;67856;47.754;19.088;2023-07-16T00:28:10;2.30;;;2.10;;
78563;SDS011;67856;47.754;19.088;2023-07-16T00:31:14;2.50;;;2.30;;
78563;SDS011;67856;47.754;19.088;2023-07-16T00:34:16;2.40;;;2.20;;
78563;SDS011;67856;47.754;19.088;2023-07-16T00:37:19;2.58;;;2.38;;
78563;SDS011;67856;47.754;19.088;2023-07-16T00:40:22;2.33;;;2.13;;
78563;SDS011;67856;47.754;19.088;2023-07-16T00:43:25;2.22;;;1.98;;
78563;SDS011;67856;47.754;19.088;2023-07-16T00:46:28;2.35;;;2.13;;
78563;SDS011;67856;47.754;19.088;2023-07-16T00:49:31;3.22;;;2.17;;
78563;SDS011;67856;47.754;19.088;2023-07-16T00:52:34;2.55;;;2.35;;
78563;SDS011;67856;47.754;19.088;2023-07-16T00:55:37;2.23;;;2.00;;
78563;SDS011;67856;47.754;19.088;2023-07-16T00:58:40;2.65;;;2.03;;
78563;SDS011;67856;47.754;19.088;2023-07-16T01:01:45;2.40;;;2.20;;
78563;SDS011;67856;47.754;19.088;2023-07-16T01:04:48;2.42;;;2.17;;
78563;SDS011;67856;47.754;19.088;2023-07-16T01:07:54;2.50;;;2.30;;
78563;SDS011;67856;47.754;19.088;2023-07-16T01:11:01;2.53;;;2.20;;
78563;SDS011;67856;47.754;19.088;2023-07-16T01:14:08;2.30;;;2.10;;
78563;SDS011;67856;47.754;19.088;2023-07-16T01:17:10;2.50;;;2.30;;
78563;SDS011;67856;47.754;19.088;2023-07-16T01:20:15;2.30;;;2.10;;
78563;SDS011;67856;47.754;19.088;2023-07-16T01:30:14;2.40;;;2.20;;
78563;SDS011;67856;47.754;19.088;2023-07-16T01:33:18;2.80;;;2.60;;
78563;SDS011;67856;47.754;19.088;2023-07-16T01:36:23;2.85;;;1.90;;
78563;SDS011;67856;47.754;19.088;2023-07-16T01:39:27;2.30;;;2.10;;
78563;SDS011;67856;47.754;19.088;2023-07-16T01:42:30;2.23;;;2.03;;
78563;SDS011;67856;47.754;19.088;2023-07-16T01:45:33;2.30;;;2.10;;
78563;SDS011;67856;47.754;19.088;2023-07-16T01:48:35;2.38;;;2.10;;
78563;SDS011;67856;47.754;19.088;2023-07-16T01:51:39;2.42;;;2.10;;
78563;SDS011;67856;47.754;19.088;2023-07-16T01:54:41;2.92;;;2.30;;
78563;SDS011;67856;47.754;19.088;2023-07-16T01:57:44;2.83;;;2.30;;
78563;SDS011;67856;47.754;19.088;2023-07-16T02:00:47;2.10;;;1.90;;
78563;SDS011;67856;47.754;19.088;2023-07-16T02:03:50;2.15;;;1.95;;
78563;SDS011;67856;47.754;19.088;2023-07-16T02:06:53;2.67;;;2.40;;
78563;SDS011;67856;47.754;19.088;2023-07-16T02:09:55;2.65;;;2.45;;
78563;SDS011;67856;47.754;19.088;2023-07-16T02:12:58;2.37;;;2.13;;
78563;SDS011;67856;47.754;19.088;2023-07-16T02:16:00;2.80;;;2.10;;
78563;SDS011;67856;47.754;19.088;2023-07-16T02:19:03;2.35;;;2.15;;
78563;SDS011;67856;47.754;19.088;2023-07-16T02:22:07;2.58;;;2.30;;
78563;SDS011;67856;47.754;19.088;2023-07-16T02:25:10;2.45;;;2.22;;
78563;SDS011;67856;47.754;19.088;2023-07-16T02:28:13;2.57;;;2.37;;
78563;SDS011;67856;47.754;19.088;2023-07-16T02:31:16;2.50;;;2.30;;
78563;SDS011;67856;47.754;19.088;2023-07-16T02:34:19;2.30;;;2.10;;
78563;SDS011;67856;47.754;19.088;2023-07-16T02:37:21;2.10;;;1.90;;
78563;SDS011;67856;47.754;19.088;2023-07-16T02:40:24;2.60;;;2.40;;
78563;SDS011;67856;47.754;19.088;2023-07-16T02:43:27;2.33;;;2.13;;
78563;SDS011;67856;47.754;19.088;2023-07-16T02:46:29;2.67;;;2.47;;
78563;SDS011;67856;47.754;19.088;2023-07-16T02:49:32;2.20;;;2.00;;
78563;SDS011;67856;47.754;19.088;2023-07-16T02:52:35;2.17;;;1.98;;
78563;SDS011;67856;47.754;19.088;2023-07-16T02:55:44;2.33;;;2.05;;
78563;SDS011;67856;47.754;19.088;2023-07-16T02:58:47;2.37;;;2.17;;
78563;SDS011;67856;47.754;19.088;2023-07-16T03:01:53;2.28;;;2.08;;
78563;SDS011;67856;47.754;19.088;2023-07-16T03:04:56;2.67;;;2.47;;
78563;SDS011;67856;47.754;19.088;2023-07-16T03:07:58;2.17;;;1.98;;
78563;SDS011;67856;47.754;19.088;2023-07-16T03:11:02;2.35;;;2.08;;
78563;SDS011;67856;47.754;19.088;2023-07-16T03:14:06;2.40;;;2.10;;
78563;SDS011;67856;47.754;19.088;2023-07-16T03:17:09;2.20;;;2.00;;
78563;SDS011;67856;47.754;19.088;2023-07-16T03:20:13;2.15;;;1.95;;
78563;SDS011;67856;47.754;19.088;2023-07-16T03:23:15;2.30;;;2.10;;
78563;SDS011;67856;47.754;19.088;2023-07-16T03:26:19;2.40;;;2.20;;
78563;SDS011;67856;47.754;19.088;2023-07-16T03:29:24;2.53;;;2.33;;
78563;SDS011;67856;47.754;19.088;2023-07-16T03:32:27;3.28;;;2.30;;
78563;SDS011;67856;47.754;19.088;2023-07-16T03:35:44;2.28;;;2.00;;
78563;SDS011;67856;47.754;19.088;2023-07-16T03:38:47;2.25;;;2.05;;
78563;SDS011;67856;47.754;19.088;2023-07-16T03:41:50;2.55;;;2.10;;
78563;SDS011;67856;47.754;19.088;2023-07-16T03:44:53;2.20;;;2.00;;
78563;SDS011;67856;47.754;19.088;2023-07-16T03:47:55;4.00;;;2.17;;
78563;SDS011;67856;47.754;19.088;2023-07-16T03:51:00;2.55;;;2.35;;
78563;SDS011;67856;47.754;19.088;2023-07-16T03:54:03;2.78;;;2.45;;
78563;SDS011;67856;47.754;19.088;2023-07-16T03:57:07;2.58;;;2.38;;
78563;SDS011;67856;47.754;19.088;2023-07-16T04:00:10;3.97;;;2.70;;
78563;SDS011;67856;47.754;19.088;2023-07-16T04:03:16;2.38;;;2.17;;
78563;SDS011;67856;47.754;19.088;2023-07-16T04:06:19;2.50;;;2.30;;
78563;SDS011;67856;47.754;19.088;2023-07-16T04:09:23;2.53;;;2.30;;
78563;SDS011;67856;47.754;19.088;2023-07-16T04:12:25;2.20;;;1.95;;
78563;SDS011;67856;47.754;19.088;2023-07-16T04:15:28;4.70;;;2.50;;
78563;SDS011;67856;47.754;19.088;2023-07-16T04:18:30;3.10;;;2.80;;
78563;SDS011;67856;47.754;19.088;2023-07-16T04:21:33;2.67;;;2.20;;
78563;SDS011;67856;47.754;19.088;2023-07-16T04:24:36;3.20;;;2.47;;
78563;SDS011;67856;47.754;19.088;2023-07-16T04:27:38;2.78;;;2.03;;
78563;SDS011;67856;47.754;19.088;2023-07-16T04:30:43;2.47;;;2.27;;
78563;SDS011;67856;47.754;19.088;2023-07-16T04:33:46;2.42;;;1.80;;
78563;SDS011;67856;47.754;19.088;2023-07-16T04:36:49;2.53;;;2.33;;
78563;SDS011;67856;47.754;19.088;2023-07-16T04:39:51;2.42;;;2.13;;
78563;SDS011;67856;47.754;19.088;2023-07-16T04:42:54;2.47;;;2.28;;
78563;SDS011;67856;47.754;19.088;2023-07-16T04:45:56;2.17;;;1.97;;
78563;SDS011;67856;47.754;19.088;2023-07-16T04:49:00;2.20;;;2.00;;
78563;SDS011;67856;47.754;19.088;2023-07-16T04:52:04;2.20;;;2.00;;
78563;SDS011;67856;47.754;19.088;2023-07-16T04:55:07;2.10;;;1.90;;
78563;SDS011;67856;47.754;19.088;2023-07-16T04:58:13;1.80;;;1.70;;
78563;SDS011;67856;47.754;19.088;2023-07-16T05:01:19;1.90;;;1.70;;
78563;SDS011;67856;47.754;19.088;2023-07-16T05:04:22;1.83;;;1.67;;
78563;SDS011;67856;47.754;19.088;2023-07-16T05:07:25;1.92;;;1.70;;
78563;SDS011;67856;47.754;19.088;2023-07-16T05:10:28;2.42;;;1.80;;
78563;SDS011;67856;47.754;19.088;2023-07-16T05:13:30;1.90;;;1.70;;
78563;SDS011;67856;47.754;19.088;2023-07-16T05:16:36;2.13;;;1.70;;
78563;SDS011;67856;47.754;19.088;2023-07-16T05:19:40;1.70;;;1.60;;
78563;SDS011;67856;47.754;19.088;2023-07-16T05:22:44;1.88;;;1.77;;
78563;SDS011;67856;47.754;19.088;2023-07-16T05:25:47;1.73;;;1.63;;
78563;SDS011;67856;47.754;19.088;2023-07-16T05:28:51;1.98;;;1.80;;
78563;SDS011;67856;47.754;19.088;2023-07-16T05:31:54;1.80;;;1.70;;
78563;SDS011;67856;47.754;19.088;2023-07-16T05:34:56;1.65;;;1.55;;
78563;SDS011;67856;47.754;19.088;2023-07-16T05:38:02;1.63;;;1.52;;
78563;SDS011;67856;47.754;19.088;2023-07-16T05:41:07;2.00;;;1.80;;
78563;SDS011;67856;47.754;19.088;2023-07-16T05:44:14;1.83;;;1.70;;
78563;SDS011;67856;47.754;19.088;2023-07-16T05:47:17;1.60;;;1.50;;
78563;SDS011;67856;47.754;19.088;2023-07-16T05:50:20;1.98;;;1.73;;
78563;SDS011;67856;47.754;19.088;2023-07-16T05:53:22;1.88;;;1.77;;
78563;SDS011;67856;47.754;19.088;2023-07-16T05:56:25;1.80;;;1.70;;
78563;SDS011;67856;47.754;19.088;2023-07-16T05:59:28;2.63;;;2.10;;
78563;SDS011;67856;47.754;19.088;2023-07-16T06:02:30;2.10;;;1.90;;
78563;SDS011;67856;47.754;19.088;2023-07-16T06:05:35;1.75;;;1.65;;
78563;SDS011;67856;47.754;19.088;2023-07-16T06:08:39;2.08;;;1.88;;
78563;SDS011;67856;47.754;19.088;2023-07-16T06:11:41;2.00;;;1.80;;
78563;SDS011;67856;47.754;19.088;2023-07-16T06:14:45;2.10;;;1.90;;
78563;SDS011;67856;47.754;19.088;2023-07-16T06:17:47;1.70;;;1.60;;
78563;SDS011;67856;47.754;19.088;2023-07-16T06:20:53;1.95;;;1.75;;
78563;SDS011;67856;47.754;19.088;2023-07-16T06:23:57;2.20;;;2.00;;
78563;SDS011;67856;47.754;19.088;2023-07-16T06:27:00;1.73;;;1.63;;
78563;SDS011;67856;47.754;19.088;2023-07-16T06:30:03;1.70;;;1.60;;
78563;SDS011;67856;47.754;19.088;2023-07-16T06:33:07;1.87;;;1.77;;
78563;SDS011;67856;47.754;19.088;2023-07-16T06:36:10;2.05;;;1.80;;
78563;SDS011;67856;47.754;19.088;2023-07-16T06:39:13;1.80;;;1.70;;
78563;SDS011;67856;47.754;19.088;2023-07-16T06:42:16;1.70;;;1.60;;
78563;SDS011;67856;47.754;19.088;2023-07-16T06:45:20;1.98;;;1.83;;
78563;SDS011;67856;47.754;19.088;2023-07-16T06:48:22;2.20;;;1.63;;
78563;SDS011;67856;47.754;19.088;2023-07-16T06:51:25;1.70;;;1.60;;
78563;SDS011;67856;47.754;19.088;2023-07-16T06:54:29;1.60;;;1.50;;
78563;SDS011;67856;47.754;19.088;2023-07-16T06:57:32;1.70;;;1.60;;
78563;SDS011;67856;47.754;19.088;2023-07-16T07:00:34;1.65;;;1.52;;
78563;SDS011;67856;47.754;19.088;2023-07-16T07:03:37;1.83;;;1.73;;
78563;SDS011;67856;47.754;19.088;2023-07-16T07:06:40;1.80;;;1.70;;
78563;SDS011;67856;47.754;19.088;2023-07-16T07:09:46;1.70;;;1.60;;
78563;SDS011;67856;47.754;19.088;2023-07-16T07:12:54;1.60;;;1.50;;
78563;SDS011;67856;47.754;19.088;2023-07-16T07:15:58;1.70;;;1.60;;
78563;SDS011;67856;47.754;19.088;2023-07-16T07:19:01;1.57;;;1.43;;
78563;SDS011;67856;47.754;19.088;2023-07-16T07:22:04;1.70;;;1.60;;
78563;SDS011;67856;47.754;19.088;2023-07-16T07:25:07;1.80;;;1.70;;
78563;SDS011;67856;47.754;19.088;2023-07-16T07:28:10;1.50;;;1.40;;
78563;SDS011;67856;47.754;19.088;2023-07-16T07:31:15;1.70;;;1.60;;
78563;SDS011;67856;47.754;19.088;2023-07-16T07:34:18;1.60;;;1.50;;
78563;SDS011;67856;47.754;19.088;2023-07-16T07:37:21;1.52;;;1.42;;
78563;SDS011;67856;47.754;19.088;2023-07-16T07:40:24;1.55;;;1.45;;
78563;SDS011;67856;47.754;19.088;2023-07-16T07:43:28;2.05;;;1.40;;
78563;SDS011;67856;47.754;19.088;2023-07-16T07:46:31;1.80;;;1.70;;
78563;SDS011;67856;47.754;19.088;2023-07-16T07:49:34;1.60;;;1.47;;
78563;SDS011;67856;47.754;19.088;2023-07-16T07:52:37;1.55;;;1.45;;
78563;SDS011;67856;47.754;19.088;2023-07-16T07:55:41;1.55;;;1.45;;
78563;SDS011;67856;47.754;19.088;2023-07-16T07:58:44;1.40;;;1.30;;
78563;SDS011;67856;47.754;19.088;2023-07-16T08:01:48;1.50;;;1.40;;
78563;SDS011;67856;47.754;19.088;2023-07-16T08:04:51;1.60;;;1.50;;
78563;SDS011;67856;47.754;19.088;2023-07-16T08:08:00;1.63;;;1.52;;
78563;SDS011;67856;47.754;19.088;2023-07-16T08:11:03;1.60;;;1.50;;
78563;SDS011;67856;47.754;19.088;2023-07-16T08:14:05;1.60;;;1.48;;
78563;SDS011;67856;47.754;19.088;2023-07-16T08:17:12;1.45;;;1.35;;
78563;SDS011;67856;47.754;19.088;2023-07-16T08:20:14;1.67;;;1.50;;
78563;SDS011;67856;47.754;19.088;2023-07-16T08:23:17;1.58;;;1.45;;
78563;SDS011;67856;47.754;19.088;2023-07-16T08:26:22;1.60;;;1.50;;
78563;SDS011;67856;47.754;19.088;2023-07-16T08:29:25;1.63;;;1.52;;
78563;SDS011;67856;47.754;19.088;2023-07-16T08:32:28;1.75;;;1.63;;
78563;SDS011;67856;47.754;19.088;2023-07-16T08:35:32;1.50;;;1.40;;
78563;SDS011;67856;47.754;19.088;2023-07-16T08:38:35;1.50;;;1.40;;
78563;SDS011;67856;47.754;19.088;2023-07-16T08:41:38;1.60;;;1.50;;
78563;SDS011;67856;47.754;19.088;2023-07-16T08:44:41;1.60;;;1.42;;
78563;SDS011;67856;47.754;19.088;2023-07-16T08:47:43;1.70;;;1.60;;
78563;SDS011;67856;47.754;19.088;2023-07-16T08:50:48;1.93;;;1.57;;
78563;SDS011;67856;47.754;19.088;2023-07-16T08:53:51;1.50;;;1.40;;
78563;SDS011;67856;47.754;19.088;2023-07-16T08:56:54;1.70;;;1.60;;
78563;SDS011;67856;47.754;19.088;2023-07-16T08:59:59;1.60;;;1.50;;
78563;SDS011;67856;47.754;19.088;2023-07-16T09:03:02;1.55;;;1.45;;
78563;SDS011;67856;47.754;19.088;2023-07-16T09:06:05;1.63;;;1.53;;
78563;SDS011;67856;47.754;19.088;2023-07-16T09:09:10;1.60;;;1.50;;
78563;SDS011;67856;47.754;19.088;2023-07-16T09:12:23;1.67;;;1.58;;
78563;SDS011;67856;47.754;19.088;2023-07-16T09:15:26;1.85;;;1.50;;
78563;SDS011;67856;47.754;19.088;2023-07-16T09:18:33;1.45;;;1.35;;
78563;SDS011;67856;47.754;19.088;2023-07-16T09:21:38;1.70;;;1.60;;
78563;SDS011;67856;47.754;19.088;2023-07-16T09:24:40;1.60;;;1.50;;
78563;SDS011;67856;47.754;19.088;2023-07-16T09:27:43;1.70;;;1.60;;
78563;SDS011;67856;47.754;19.088;2023-07-16T09:30:46;1.60;;;1.50;;
78563;SDS011;67856;47.754;19.088;2023-07-16T09:33:51;1.88;;;1.70;;
78563;SDS011;67856;47.754;19.088;2023-07-16T09:36:56;1.50;;;1.40;;
78563;SDS011;67856;47.754;19.088;2023-07-16T09:40:00;1.77;;;1.40;;
78563;SDS011;67856;47.754;19.088;2023-07-16T09:43:05;1.58;;;1.48;;
78563;SDS011;67856;47.754;19.088;2023-07-16T09:46:08;1.75;;;1.58;;
78563;SDS011;67856;47.754;19.088;2023-07-16T09:49:11;1.60;;;1.50;;
78563;SDS011;67856;47.754;19.088;2023-07-16T09:52:16;1.43;;;1.33;;
78563;SDS011;67856;47.754;19.088;2023-07-16T09:55:21;1.50;;;1.40;;
78563;SDS011;67856;47.754;19.088;2023-07-16T09:58:24;1.50;;;1.40;;
78563;SDS011;67856;47.754;19.088;2023-07-16T10:01:28;1.58;;;1.48;;
78563;SDS011;67856;47.754;19.088;2023-07-16T10:04:38;1.60;;;1.50;;
78563;SDS011;67856;47.754;19.088;2023-07-16T10:07:51;1.40;;;1.30;;
78563;SDS011;67856;47.754;19.088;2023-07-16T10:10:57;1.65;;;1.55;;
78563;SDS011;67856;47.754;19.088;2023-07-16T10:14:00;1.60;;;1.40;;
78563;SDS011;67856;47.754;19.088;2023-07-16T10:17:04;1.60;;;1.50;;
78563;SDS011;67856;47.754;19.088;2023-07-16T10:20:08;1.60;;;1.50;;
78563;SDS011;67856;47.754;19.088;2023-07-16T10:23:16;1.60;;;1.50;;
78563;SDS011;67856;47.754;19.088;2023-07-16T10:26:19;1.70;;;1.60;;
78563;SDS011;67856;47.754;19.088;2023-07-16T10:29:22;1.67;;;1.58;;
78563;SDS011;67856;47.754;19.088;2023-07-16T10:32:28;1.63;;;1.52;;
78563;SDS011;67856;47.754;19.088;2023-07-16T10:35:34;1.52;;;1.42;;
78563;SDS011;67856;47.754;19.088;2023-07-16T10:38:41;1.57;;;1.40;;
78563;SDS011;67856;47.754;19.088;2023-07-16T10:41:46;1.50;;;1.40;;
78563;SDS011;67856;47.754;19.088;2023-07-16T10:44:50;1.60;;;1.50;;
78563;SDS011;67856;47.754;19.088;2023-07-16T10:47:54;1.63;;;1.52;;
78563;SDS011;67856;47.754;19.088;2023-07-16T10:50:58;1.60;;;1.50;;
78563;SDS011;67856;47.754;19.088;2023-07-16T10:54:00;1.70;;;1.60;;
78563;SDS011;67856;47.754;19.088;2023-07-16T10:57:08;1.58;;;1.45;;
78563;SDS011;67856;47.754;19.088;2023-07-16T11:00:11;1.60;;;1.50;;
78563;SDS011;67856;47.754;19.088;2023-07-16T11:03:15;1.60;;;1.50;;
78563;SDS011;67856;47.754;19.088;2023-07-16T11:06:19;1.50;;;1.40;;
78563;SDS011;67856;47.754;19.088;2023-07-16T11:09:22;1.50;;;1.40;;
78563;SDS011;67856;47.754;19.088;2023-07-16T11:12:24;1.65;;;1.55;;
78563;SDS011;67856;47.754;19.088;2023-07-16T11:15:30;1.67;;;1.55;;
78563;SDS011;67856;47.754;19.088;2023-07-16T11:18:35;1.60;;;1.50;;
78563;SDS011;67856;47.754;19.088;2023-07-16T11:21:38;1.63;;;1.52;;
78563;SDS011;67856;47.754;19.088;2023-07-16T11:24:42;1.60;;;1.33;;
78563;SDS011;67856;47.754;19.088;2023-07-16T11:27:46;1.80;;;1.70;;
78563;SDS011;67856;47.754;19.088;2023-07-16T11:30:49;1.70;;;1.60;;
78563;SDS011;67856;47.754;19.088;2023-07-16T11:33:53;1.67;;;1.58;;
78563;SDS011;67856;47.754;19.088;2023-07-16T11:37:11;1.77;;;1.67;;
78563;SDS011;67856;47.754;19.088;2023-07-16T11:40:15;1.70;;;1.60;;
78563;SDS011;67856;47.754;19.088;2023-07-16T11:43:20;1.58;;;1.48;;
78563;SDS011;67856;47.754;19.088;2023-07-16T11:46:22;1.70;;;1.60;;
78563;SDS011;67856;47.754;19.088;2023-07-16T11:49:25;1.60;;;1.50;;
78563;SDS011;67856;47.754;19.088;2023-07-16T11:52:28;1.58;;;1.48;;
78563;SDS011;67856;47.754;19.088;2023-07-16T11:55:32;1.50;;;1.40;;
78563;SDS011;67856;47.754;19.088;2023-07-16T11:58:35;1.60;;;1.50;;
78563;SDS011;67856;47.754;19.088;2023-07-16T12:01:39;1.88;;;1.77;;
78563;SDS011;67856;47.754;19.088;2023-07-16T12:04:41;1.52;;;1.42;;
78563;SDS011;67856;47.754;19.088;2023-07-16T12:07:44;1.85;;;1.55;;
78563;SDS011;67856;47.754;19.088;2023-07-16T12:10:48;1.90;;;1.80;;
78563;SDS011;67856;47.754;19.088;2023-07-16T12:13:50;2.08;;;1.63;;
78563;SDS011;67856;47.754;19.088;2023-07-16T12:16:53;1.92;;;1.83;;
78563;SDS011;67856;47.754;19.088;2023-07-16T12:19:56;1.60;;;1.48;;
78563;SDS011;67856;47.754;19.088;2023-07-16T12:22:59;1.70;;;1.60;;
78563;SDS011;67856;47.754;19.088;2023-07-16T12:26:02;1.70;;;1.60;;
78563;SDS011;67856;47.754;19.088;2023-07-16T12:29:04;1.80;;;1.70;;
78563;SDS011;67856;47.754;19.088;2023-07-16T12:32:07;1.63;;;1.52;;
78563;SDS011;67856;47.754;19.088;2023-07-16T12:35:11;1.70;;;1.60;;
78563;SDS011;67856;47.754;19.088;2023-07-16T12:38:14;1.60;;;1.50;;
78563;SDS011;67856;47.754;19.088;2023-07-16T12:41:17;1.93;;;1.77;;
78563;SDS011;67856;47.754;19.088;2023-07-16T12:44:20;1.80;;;1.70;;
78563;SDS011;67856;47.754;19.088;2023-07-16T12:47:22;1.80;;;1.70;;
78563;SDS011;67856;47.754;19.088;2023-07-16T12:50:25;1.90;;;1.70;;
78563;SDS011;67856;47.754;19.088;2023-07-16T12:53:30;1.70;;;1.60;;
78563;SDS011;67856;47.754;19.088;2023-07-16T12:56:34;1.60;;;1.50;;
78563;SDS011;67856;47.754;19.088;2023-07-16T12:59:37;2.10;;;1.70;;
78563;SDS011;67856;47.754;19.088;2023-07-16T13:02:39;1.80;;;1.70;;
78563;SDS011;67856;47.754;19.088;2023-07-16T13:05:42;1.70;;;1.60;;
78563;SDS011;67856;47.754;19.088;2023-07-16T13:08:46;4.60;;;4.13;;
78563;SDS011;67856;47.754;19.088;2023-07-16T13:11:49;1.70;;;1.60;;
78563;SDS011;67856;47.754;19.088;2023-07-16T13:14:52;1.73;;;1.63;;
78563;SDS011;67856;47.754;19.088;2023-07-16T13:17:55;1.60;;;1.50;;
78563;SDS011;67856;47.754;19.088;2023-07-16T13:20:57;1.95;;;1.80;;
78563;SDS011;67856;47.754;19.088;2023-07-16T13:24:00;1.80;;;1.70;;
78563;SDS011;67856;47.754;19.088;2023-07-16T13:27:03;1.90;;;1.80;;
78563;SDS011;67856;47.754;19.088;2023-07-16T13:30:06;1.70;;;1.60;;
78563;SDS011;67856;47.754;19.088;2023-07-16T13:33:10;1.77;;;1.67;;
78563;SDS011;67856;47.754;19.088;2023-07-16T13:36:13;1.98;;;1.77;;
78563;SDS011;67856;47.754;19.088;2023-07-16T13:39:19;1.70;;;1.60;;
78563;SDS011;67856;47.754;19.088;2023-07-16T13:42:22;1.60;;;1.50;;
78563;SDS011;67856;47.754;19.088;2023-07-16T13:45:25;1.73;;;1.63;;
78563;SDS011;67856;47.754;19.088;2023-07-16T13:48:28;2.00;;;1.80;;
78563;SDS011;67856;47.754;19.088;2023-07-16T13:51:41;1.50;;;1.40;;
78563;SDS011;67856;47.754;19.088;2023-07-16T13:54:44;1.73;;;1.60;;
78563;SDS011;67856;47.754;19.088;2023-07-16T13:57:49;1.60;;;1.50;;
78563;SDS011;67856;47.754;19.088;2023-07-16T14:00:53;1.75;;;1.65;;
78563;SDS011;67856;47.754;19.088;2023-07-16T14:03:56;1.88;;;1.67;;
78563;SDS011;67856;47.754;19.088;2023-07-16T14:06:59;1.95;;;1.50;;
78563;SDS011;67856;47.754;19.088;2023-07-16T14:10:02;1.70;;;1.60;;
78563;SDS011;67856;47.754;19.088;2023-07-16T14:13:05;1.60;;;1.50;;
78563;SDS011;67856;47.754;19.088;2023-07-16T14:16:07;1.60;;;1.50;;
78563;SDS011;67856;47.754;19.088;2023-07-16T14:19:10;1.70;;;1.60;;
78563;SDS011;67856;47.754;19.088;2023-07-16T14:22:14;1.73;;;1.63;;
78563;SDS011;67856;47.754;19.088;2023-07-16T14:25:18;1.70;;;1.60;;
78563;SDS011;67856;47.754;19.088;2023-07-16T14:28:24;1.77;;;1.67;;
78563;SDS011;67856;47.754;19.088;2023-07-16T14:31:32;1.60;;;1.50;;
78563;SDS011;67856;47.754;19.088;2023-07-16T14:34:35;1.80;;;1.70;;
78563;SDS011;67856;47.754;19.088;2023-07-16T14:37:37;1.70;;;1.60;;
78563;SDS011;67856;47.754;19.088;2023-07-16T14:40:40;1.80;;;1.70;;
78563;SDS011;67856;47.754;19.088;2023-07-16T14:43:44;2.00;;;1.80;;
78563;SDS011;67856;47.754;19.088;2023-07-16T14:46:48;1.83;;;1.60;;
78563;SDS011;67856;47.754;19.088;2023-07-16T14:49:51;1.80;;;1.70;;
78563;SDS011;67856;47.754;19.088;2023-07-16T14:52:57;1.60;;;1.50;;
78563;SDS011;67856;47.754;19.088;2023-07-16T14:56:00;1.90;;;1.80;;
78563;SDS011;67856;47.754;19.088;2023-07-16T14:59:03;1.60;;;1.50;;
78563;SDS011;67856;47.754;19.088;2023-07-16T15:02:06;1.60;;;1.50;;
78563;SDS011;67856;47.754;19.088;2023-07-16T15:05:09;1.80;;;1.70;;
78563;SDS011;67856;47.754;19.088;2023-07-16T15:08:12;1.65;;;1.55;;
78563;SDS011;67856;47.754;19.088;2023-07-16T15:11:16;1.45;;;1.35;;
78563;SDS011;67856;47.754;19.088;2023-07-16T15:14:19;1.70;;;1.60;;
78563;SDS011;67856;47.754;19.088;2023-07-16T15:17:22;1.83;;;1.73;;
78563;SDS011;67856;47.754;19.088;2023-07-16T15:20:25;1.80;;;1.70;;
78563;SDS011;67856;47.754;19.088;2023-07-16T15:23:28;1.63;;;1.52;;
78563;SDS011;67856;47.754;19.088;2023-07-16T15:26:31;1.70;;;1.60;;
78563;SDS011;67856;47.754;19.088;2023-07-16T15:29:34;2.63;;;1.70;;
78563;SDS011;67856;47.754;19.088;2023-07-16T15:32:37;1.80;;;1.70;;
78563;SDS011;67856;47.754;19.088;2023-07-16T15:35:41;2.10;;;1.90;;
78563;SDS011;67856;47.754;19.088;2023-07-16T15:38:43;1.80;;;1.70;;
78563;SDS011;67856;47.754;19.088;2023-07-16T15:41:46;1.70;;;1.60;;
78563;SDS011;67856;47.754;19.088;2023-07-16T15:44:54;1.60;;;1.50;;
78563;SDS011;67856;47.754;19.088;2023-07-16T15:47:57;1.65;;;1.55;;
78563;SDS011;67856;47.754;19.088;2023-07-16T15:51:03;1.75;;;1.65;;
78563;SDS011;67856;47.754;19.088;2023-07-16T15:54:06;1.50;;;1.40;;
78563;SDS011;67856;47.754;19.088;2023-07-16T15:57:15;1.70;;;1.60;;
78563;SDS011;67856;47.754;19.088;2023-07-16T16:00:18;1.40;;;1.30;;
78563;SDS011;67856;47.754;19.088;2023-07-16T16:03:22;1.77;;;1.67;;
78563;SDS011;67856;47.754;19.088;2023-07-16T16:06:25;1.73;;;1.63;;
78563;SDS011;67856;47.754;19.088;2023-07-16T16:09:28;1.70;;;1.60;;
78563;SDS011;67856;47.754;19.088;2023-07-16T16:12:31;1.95;;;1.80;;
78563;SDS011;67856;47.754;19.088;2023-07-16T16:15:34;1.60;;;1.50;;
78563;SDS011;67856;47.754;19.088;2023-07-16T16:18:37;1.60;;;1.50;;
78563;SDS011;67856;47.754;19.088;2023-07-16T16:21:39;1.73;;;1.63;;
78563;SDS011;67856;47.754;19.088;2023-07-16T16:24:42;1.58;;;1.48;;
78563;SDS011;67856;47.754;19.088;2023-07-16T16:27:45;1.70;;;1.60;;
78563;SDS011;67856;47.754;19.088;2023-07-16T16:30:48;1.73;;;1.50;;
78563;SDS011;67856;47.754;19.088;2023-07-16T16:33:50;1.60;;;1.50;;
78563;SDS011;67856;47.754;19.088;2023-07-16T16:36:53;1.88;;;1.73;;
78563;SDS011;67856;47.754;19.088;2023-07-16T16:39:57;1.80;;;1.50;;
78563;SDS011;67856;47.754;19.088;2023-07-16T16:43:01;1.65;;;1.55;;
78563;SDS011;67856;47.754;19.088;2023-07-16T16:46:05;1.73;;;1.60;;
78563;SDS011;67856;47.754;19.088;2023-07-16T16:49:08;1.98;;;1.77;;
78563;SDS011;67856;47.754;19.088;2023-07-16T16:52:12;1.75;;;1.65;;
78563;SDS011;67856;47.754;19.088;2023-07-16T16:55:15;1.42;;;1.33;;
78563;SDS011;67856;47.754;19.088;2023-07-16T16:58:18;1.80;;;1.50;;
78563;SDS011;67856;47.754;19.088;2023-07-16T17:01:21;1.60;;;1.50;;
78563;SDS011;67856;47.754;19.088;2023-07-16T17:04:24;1.77;;;1.67;;
78563;SDS011;67856;47.754;19.088;2023-07-16T17:07:31;1.38;;;1.27;;
78563;SDS011;67856;47.754;19.088;2023-07-16T17:10:33;1.80;;;1.70;;
78563;SDS011;67856;47.754;19.088;2023-07-16T17:13:36;1.70;;;1.60;;
78563;SDS011;67856;47.754;19.088;2023-07-16T17:16:39;1.70;;;1.60;;
78563;SDS011;67856;47.754;19.088;2023-07-16T17:19:45;1.60;;;1.50;;
78563;SDS011;67856;47.754;19.088;2023-07-16T17:22:48;1.73;;;1.63;;
78563;SDS011;67856;47.754;19.088;2023-07-16T17:25:51;1.67;;;1.55;;
78563;SDS011;67856;47.754;19.088;2023-07-16T17:28:54;1.60;;;1.50;;
78563;SDS011;67856;47.754;19.088;2023-07-16T17:31:58;1.70;;;1.50;;
78563;SDS011;67856;47.754;19.088;2023-07-16T17:35:02;1.52;;;1.42;;
78563;SDS011;67856;47.754;19.088;2023-07-16T17:38:05;1.60;;;1.50;;
78563;SDS011;67856;47.754;19.088;2023-07-16T17:41:08;1.77;;;1.52;;
78563;SDS011;67856;47.754;19.088;2023-07-16T17:44:11;1.70;;;1.60;;
78563;SDS011;67856;47.754;19.088;2023-07-16T17:47:14;1.57;;;1.47;;
78563;SDS011;67856;47.754;19.088;2023-07-16T17:50:17;1.60;;;1.50;;
78563;SDS011;67856;47.754;19.088;2023-07-16T17:53:21;1.60;;;1.50;;
78563;SDS011;67856;47.754;19.088;2023-07-16T17:56:24;1.50;;;1.40;;
78563;SDS011;67856;47.754;19.088;2023-07-16T17:59:28;1.50;;;1.40;;
78563;SDS011;67856;47.754;19.088;2023-07-16T18:02:30;1.70;;;1.60;;
78563;SDS011;67856;47.754;19.088;2023-07-16T18:05:33;1.65;;;1.55;;
78563;SDS011;67856;47.754;19.088;2023-07-16T18:08:39;1.85;;;1.75;;
78563;SDS011;67856;47.754;19.088;2023-07-16T18:11:50;1.70;;;1.60;;
78563;SDS011;67856;47.754;19.088;2023-07-16T18:14:55;1.80;;;1.70;;